查看: 1108|回复: 0

教大家读懂TAF报文(终端机场天气预报)

[复制链接]
已绑定手机
发表于 2021-10-3 03:02:26 | 显示全部楼层 |阅读模式
终端机场天气预报Terminal Aerodrome Forecasts , TAF)是一种气象和航空领域报告天气预报信息的格式(尤其是航空领域),TAF信息一般用于民用机场的天气状况监测。在主要的民用机场,TAF一般每天更新4次,由世界协调时(UTC)00:00为第一次,后每隔6小时更新一次,并且直至下一个00:00并开始新的循环。预报有效期一般在24或30小时内,范围大约覆盖在从机场跑道为中心的8公里之内。对于军事机场和某些特殊的民用机场,TAF会每三小时发布一次,每天总共发布8次,时间范围则为3个小时至30个小时。


一个在2008年11月5日1730UTC做出的,有效期达30小时的TAF预报例子:
TAF KXYZ 051730Z 0518/0624 31008KT 3SM -SHRA BKN020     FM052300 30006KT 5SM -SHRA OVC030        PROB30 0604/0606 VRB20G35KT 1SM TSRA BKN015CB      FM060600 25010KT 4SM -SHRA OVC050       TEMPO 0608/0611 2SM -SHRA OVC030       RMK NXT FCST BY 00Z=
第一行包含标识和预报有效期。
  • TAF:表示以下是终端飞行场预报。
  • KXYZ:表示适用于该预报的机场(ICAO机场代码)。
  • 051730Z:表示该预报是在该月的5号1730 UTC(也称为Zulu时间,因此简写为Z)发布的。
  • 0518/0624:表示该预报有效期从5号1800 UTC的开始,直到6号2400 UTC结束。
第一行的其余部分包含初始预报情况。表示不同天气条件会使用不同代码。
最后一行是勘误,注释和备注。
  • RMK NXT FCST BY 00Z表示下一个预报将在0000 UTC发布。

您需要登录后才可以回帖 登录 | 加入联盟

本版积分规则

快速回复 返回顶部 返回列表